ENEV/EVE METAR and TAF weather

Enter ICAO airport designator
Station Type Date Time Source
ENEV METAR 2023/09/27 00:20 UTC NOAA

ENEV 270020Z 26015G28KT 220V310 9999 BKN031 13/10 Q1013 RMK WIND 1400FT 24026G38KT


Station Type Date Time Source
ENEV Decoded METAR 2023/09/27 00:20 UTC NOAA

Evenes, Norway (ENEV) 68-31N 016-41E 26M
Sep 26, 2023 - 08:20 PM EDT / 2023.09.27 0020 UTC
Wind: from the W (260 degrees) at 17 MPH (15 KT) gusting to 32 MPH (28 KT) (direction variable):0
Visibility: greater than 7 mile(s):0
Sky conditions: mostly cloudy
Temperature: 55 F (13 C)
Dew Point: 50 F (10 C)
Relative Humidity: 81%
Pressure (altimeter): 29.91 in. Hg (1013 hPa)
ob: ENEV 270020Z 26015G28KT 220V310 9999 BKN031 13/10 Q1013 RMK WIND 1400FT 24026G38KT
cycle: 0

Station Type Date Time Source
ENEV TAF 2023/09/26 18:46 UTC NOAA

TAF ENEV 261700Z 2618/2718 22009KT 9999 -SHRA FEW010 BKN025
TEMPO 2618/2702 24020G35KT
TEMPO 2618/2622 2500 RADZ BR BKN006
TEMPO 2622/2703 BKN009

Example: see airport list